EFW8NM EGKK-LPMA
Flight info
| Callsign | EFW8NM |
|---|---|
| Flight time | N/A |
| Altitude | 33000 |
| Route | IMVUR1Z IMVUR N63 SAM M195 LORKU DCT POZOF DCT LOTEE DCT PINEK DCT VERAM DCT TELMU DCT PECKY DCT LIDRO LIDRO1P |
| Aircraft | A321/M-SDE3FGHIRWY/LB1 |
Departure
| Time | 2026-05-05 15:17 |
|---|---|
| Airport | London Gatwick Airport (EGKK) |
Arrival
| Time | N/A |
|---|---|
| Airport | Cristiano Ronaldo International Airport (LPMA) |
| Time | Latitude | Longitude | Altitude | Speed | Heading |
|---|---|---|---|---|---|
| 2026-05-05 14:40 | 51.15612 | -0.16678 | 204 ft | 0 kts | 167° |
| 2026-05-05 15:03 | 51.15621 | -0.16681 | 214 ft | 4 kts | 167° |
| 2026-05-05 15:03 | 51.15647 | -0.16690 | 204 ft | 4 kts | 167° |
| 2026-05-05 15:04 | 51.15668 | -0.16698 | 208 ft | 4 kts | 176° |
| 2026-05-05 15:04 | 51.15689 | -0.16688 | 206 ft | 4 kts | 240° |
| 2026-05-05 15:04 | 51.15697 | -0.16651 | 209 ft | 4 kts | 257° |
| 2026-05-05 15:04 | 51.15698 | -0.16637 | 210 ft | 0 kts | 257° |
| 2026-05-05 15:06 | 51.15698 | -0.16639 | 210 ft | 1 kts | 257° |
| 2026-05-05 15:07 | 51.15687 | -0.16712 | 204 ft | 12 kts | 256° |
| 2026-05-05 15:07 | 51.15663 | -0.16883 | 215 ft | 17 kts | 258° |
| 2026-05-05 15:07 | 51.15638 | -0.17072 | 204 ft | 18 kts | 258° |
| 2026-05-05 15:07 | 51.15610 | -0.17267 | 208 ft | 19 kts | 256° |
| 2026-05-05 15:08 | 51.15574 | -0.17423 | 212 ft | 14 kts | 231° |
| 2026-05-05 15:08 | 51.15531 | -0.17564 | 213 ft | 15 kts | 256° |
| 2026-05-05 15:08 | 51.15509 | -0.17728 | 212 ft | 16 kts | 259° |
| 2026-05-05 15:08 | 51.15484 | -0.17900 | 209 ft | 16 kts | 257° |
| 2026-05-05 15:09 | 51.15459 | -0.18081 | 210 ft | 17 kts | 258° |
| 2026-05-05 15:09 | 51.15435 | -0.18237 | 203 ft | 10 kts | 243° |
| 2026-05-05 15:09 | 51.15367 | -0.18265 | 210 ft | 11 kts | 174° |
| 2026-05-05 15:09 | 51.15289 | -0.18241 | 212 ft | 12 kts | 166° |
| 2026-05-05 15:10 | 51.15226 | -0.18224 | 211 ft | 8 kts | 184° |
| 2026-05-05 15:10 | 51.15191 | -0.18279 | 215 ft | 10 kts | 252° |
| 2026-05-05 15:10 | 51.15172 | -0.18428 | 214 ft | 16 kts | 258° |
| 2026-05-05 15:10 | 51.15148 | -0.18606 | 203 ft | 18 kts | 258° |
| 2026-05-05 15:11 | 51.15114 | -0.18845 | 213 ft | 27 kts | 258° |
| 2026-05-05 15:11 | 51.15079 | -0.19112 | 204 ft | 19 kts | 258° |
| 2026-05-05 15:11 | 51.15048 | -0.19247 | 210 ft | 9 kts | 227° |
| 2026-05-05 15:11 | 51.14973 | -0.19288 | 214 ft | 14 kts | 223° |
| 2026-05-05 15:12 | 51.14931 | -0.19505 | 208 ft | 29 kts | 258° |
| 2026-05-05 15:12 | 51.14884 | -0.19843 | 211 ft | 34 kts | 257° |
| 2026-05-05 15:12 | 51.14831 | -0.20232 | 206 ft | 38 kts | 258° |
| 2026-05-05 15:12 | 51.14780 | -0.20613 | 208 ft | 36 kts | 258° |
| 2026-05-05 15:13 | 51.14741 | -0.20888 | 212 ft | 17 kts | 257° |
| 2026-05-05 15:13 | 51.14714 | -0.21085 | 211 ft | 16 kts | 257° |
| 2026-05-05 15:13 | 51.14693 | -0.21242 | 204 ft | 12 kts | 258° |
| 2026-05-05 15:13 | 51.14654 | -0.21325 | 213 ft | 11 kts | 197° |
| 2026-05-05 15:14 | 51.14617 | -0.21325 | 203 ft | 0 kts | 170° |
| 2026-05-05 15:14 | 51.14582 | -0.21312 | 212 ft | 12 kts | 160° |
| 2026-05-05 15:14 | 51.14521 | -0.21168 | 208 ft | 19 kts | 86° |
| 2026-05-05 15:15 | 51.14530 | -0.21095 | 203 ft | 0 kts | 78° |
| 2026-05-05 15:16 | 51.14530 | -0.21094 | 203 ft | 0 kts | 78° |
| 2026-05-05 15:16 | 51.14569 | -0.20810 | 211 ft | 61 kts | 78° |
| 2026-05-05 15:17 | 51.14706 | -0.19812 | 207 ft | 121 kts | 77° |
| 2026-05-05 15:17 | 51.14925 | -0.18227 | 206 ft | 170 kts | 78° |
| 2026-05-05 15:17 | 51.15168 | -0.16370 | 830 ft | 167 kts | 78° |
| 2026-05-05 15:17 | 51.15419 | -0.14565 | 1533 ft | 169 kts | 78° |
| 2026-05-05 15:18 | 51.15683 | -0.12669 | 1854 ft | 183 kts | 78° |
| 2026-05-05 15:18 | 51.15974 | -0.10619 | 2000 ft | 198 kts | 77° |
| 2026-05-05 15:18 | 51.16290 | -0.08381 | 2224 ft | 214 kts | 76° |
| 2026-05-05 15:18 | 51.16929 | -0.06244 | 2691 ft | 218 kts | 44° |
| 2026-05-05 15:19 | 51.18238 | -0.05095 | 3258 ft | 220 kts | 8° |
| 2026-05-05 15:19 | 51.19759 | -0.05290 | 3846 ft | 222 kts | 348° |
| 2026-05-05 15:19 | 51.21255 | -0.05934 | 4434 ft | 226 kts | 334° |
| 2026-05-05 15:19 | 51.22405 | -0.07637 | 4956 ft | 233 kts | 299° |
| 2026-05-05 15:20 | 51.22768 | -0.10255 | 5179 ft | 258 kts | 266° |
| 2026-05-05 15:20 | 51.22502 | -0.13173 | 5468 ft | 271 kts | 261° |
| 2026-05-05 15:20 | 51.22146 | -0.16151 | 5975 ft | 275 kts | 260° |
| 2026-05-05 15:20 | 51.21766 | -0.19161 | 6541 ft | 279 kts | 260° |
| 2026-05-05 15:21 | 51.21386 | -0.22212 | 7137 ft | 281 kts | 260° |
| 2026-05-05 15:21 | 51.21007 | -0.25266 | 7709 ft | 284 kts | 260° |
| 2026-05-05 15:21 | 51.20630 | -0.28373 | 8285 ft | 286 kts | 260° |
| 2026-05-05 15:21 | 51.20262 | -0.31479 | 8847 ft | 289 kts | 260° |
| 2026-05-05 15:22 | 51.19898 | -0.34601 | 9400 ft | 291 kts | 260° |
| 2026-05-05 15:22 | 51.19644 | -0.36711 | 9762 ft | 293 kts | 259° |
| 2026-05-05 15:22 | 51.19241 | -0.39881 | 10300 ft | 295 kts | 259° |
| 2026-05-05 15:22 | 51.18822 | -0.43062 | 10829 ft | 297 kts | 258° |
| 2026-05-05 15:23 | 51.18407 | -0.46182 | 11342 ft | 299 kts | 258° |
| 2026-05-05 15:23 | 51.17965 | -0.49517 | 11885 ft | 301 kts | 258° |
| 2026-05-05 15:23 | 51.17517 | -0.52775 | 12395 ft | 304 kts | 254° |
| 2026-05-05 15:23 | 51.16776 | -0.55949 | 12644 ft | 316 kts | 248° |
| 2026-05-05 15:24 | 51.15891 | -0.59281 | 12764 ft | 332 kts | 247° |
| 2026-05-05 15:24 | 51.14963 | -0.62740 | 12907 ft | 347 kts | 247° |
| 2026-05-05 15:24 | 51.13994 | -0.66335 | 13038 ft | 361 kts | 247° |
| 2026-05-05 15:24 | 51.12999 | -0.70037 | 13386 ft | 367 kts | 247° |
| 2026-05-05 15:25 | 51.11989 | -0.73788 | 13821 ft | 370 kts | 247° |
| 2026-05-05 15:25 | 51.10977 | -0.77554 | 14295 ft | 372 kts | 247° |
| 2026-05-05 15:25 | 51.09959 | -0.81348 | 14750 ft | 374 kts | 247° |
| 2026-05-05 15:25 | 51.08936 | -0.85156 | 15182 ft | 376 kts | 247° |
| 2026-05-05 15:26 | 51.07906 | -0.88989 | 15622 ft | 378 kts | 247° |
| 2026-05-05 15:26 | 51.06870 | -0.92839 | 16059 ft | 380 kts | 247° |
| 2026-05-05 15:26 | 51.05826 | -0.96705 | 16491 ft | 382 kts | 247° |
| 2026-05-05 15:26 | 51.04775 | -1.00593 | 16915 ft | 384 kts | 247° |
| 2026-05-05 15:27 | 51.03719 | -1.04486 | 17333 ft | 386 kts | 246° |
| 2026-05-05 15:27 | 51.02655 | -1.08398 | 17736 ft | 387 kts | 246° |
| 2026-05-05 15:27 | 51.01586 | -1.12332 | 18119 ft | 390 kts | 246° |
| 2026-05-05 15:27 | 51.00510 | -1.16285 | 18498 ft | 391 kts | 246° |
| 2026-05-05 15:28 | 50.99425 | -1.20258 | 18857 ft | 393 kts | 246° |
| 2026-05-05 15:28 | 50.98332 | -1.24249 | 19205 ft | 396 kts | 246° |
| 2026-05-05 15:28 | 50.97228 | -1.28266 | 19547 ft | 398 kts | 245° |
| 2026-05-05 15:28 | 50.95862 | -1.32087 | 19894 ft | 400 kts | 234° |
| 2026-05-05 15:29 | 50.94073 | -1.35463 | 20223 ft | 401 kts | 224° |
| 2026-05-05 15:29 | 50.91928 | -1.38266 | 20542 ft | 402 kts | 213° |
| 2026-05-05 15:29 | 50.89580 | -1.40697 | 20851 ft | 405 kts | 213° |
| 2026-05-05 15:29 | 50.87225 | -1.43142 | 21166 ft | 407 kts | 213° |
| 2026-05-05 15:30 | 50.84885 | -1.45576 | 21485 ft | 408 kts | 213° |
| 2026-05-05 15:30 | 50.82479 | -1.48077 | 21800 ft | 410 kts | 213° |
| 2026-05-05 15:30 | 50.80089 | -1.50560 | 22105 ft | 412 kts | 213° |
| 2026-05-05 15:30 | 50.77696 | -1.53038 | 22414 ft | 414 kts | 213° |
| 2026-05-05 15:31 | 50.75284 | -1.55534 | 22706 ft | 415 kts | 213° |
| 2026-05-05 15:31 | 50.72862 | -1.58039 | 22982 ft | 417 kts | 213° |
| 2026-05-05 15:31 | 50.70430 | -1.60553 | 23258 ft | 419 kts | 213° |
| 2026-05-05 15:31 | 50.67982 | -1.63079 | 23549 ft | 421 kts | 212° |
| 2026-05-05 15:32 | 50.65533 | -1.65604 | 23828 ft | 423 kts | 212° |
| 2026-05-05 15:32 | 50.63075 | -1.68133 | 24097 ft | 424 kts | 212° |
| 2026-05-05 15:32 | 50.60630 | -1.70643 | 24353 ft | 426 kts | 212° |
| 2026-05-05 15:32 | 50.58145 | -1.73191 | 24619 ft | 428 kts | 212° |
| 2026-05-05 15:33 | 50.55652 | -1.75740 | 24891 ft | 429 kts | 212° |
| 2026-05-05 15:33 | 50.53138 | -1.78302 | 25165 ft | 430 kts | 212° |
| 2026-05-05 15:33 | 50.50629 | -1.80857 | 25434 ft | 431 kts | 212° |
| 2026-05-05 15:33 | 50.48107 | -1.83428 | 25687 ft | 433 kts | 212° |
| 2026-05-05 15:34 | 50.45580 | -1.86005 | 25951 ft | 434 kts | 212° |
| 2026-05-05 15:34 | 50.43050 | -1.88583 | 26206 ft | 435 kts | 212° |
| 2026-05-05 15:34 | 50.40516 | -1.91163 | 26456 ft | 436 kts | 212° |
| 2026-05-05 15:34 | 50.37972 | -1.93747 | 26701 ft | 437 kts | 212° |
| 2026-05-05 15:35 | 50.35412 | -1.96341 | 26950 ft | 439 kts | 212° |
| 2026-05-05 15:35 | 50.32849 | -1.98932 | 27198 ft | 440 kts | 212° |
| 2026-05-05 15:35 | 50.30275 | -2.01527 | 27433 ft | 441 kts | 212° |
| 2026-05-05 15:35 | 50.27693 | -2.04125 | 27677 ft | 442 kts | 212° |
| 2026-05-05 15:36 | 50.25182 | -2.06653 | 27915 ft | 443 kts | 212° |
| 2026-05-05 15:36 | 50.22518 | -2.09321 | 28135 ft | 444 kts | 211° |
| 2026-05-05 15:36 | 50.19908 | -2.11892 | 28355 ft | 444 kts | 211° |
| 2026-05-05 15:36 | 50.17282 | -2.14444 | 28573 ft | 445 kts | 211° |
| 2026-05-05 15:37 | 50.14643 | -2.16993 | 28773 ft | 446 kts | 211° |
| 2026-05-05 15:37 | 50.12007 | -2.19540 | 28980 ft | 447 kts | 211° |
| 2026-05-05 15:37 | 50.09365 | -2.22093 | 29162 ft | 447 kts | 211° |
| 2026-05-05 15:37 | 50.06718 | -2.24653 | 29348 ft | 448 kts | 211° |
| 2026-05-05 15:38 | 50.04076 | -2.27209 | 29588 ft | 447 kts | 211° |
| 2026-05-05 15:38 | 50.01434 | -2.29764 | 29839 ft | 446 kts | 211° |
| 2026-05-05 15:38 | 49.98805 | -2.32307 | 30106 ft | 445 kts | 211° |
| 2026-05-05 15:38 | 49.96181 | -2.34840 | 30337 ft | 444 kts | 211° |
| 2026-05-05 15:39 | 49.93528 | -2.37274 | 30536 ft | 443 kts | 206° |
| 2026-05-05 15:39 | 49.90729 | -2.39276 | 30708 ft | 443 kts | 203° |
| 2026-05-05 15:39 | 49.87926 | -2.41226 | 30898 ft | 443 kts | 203° |
| 2026-05-05 15:39 | 49.85120 | -2.43183 | 31081 ft | 444 kts | 203° |
| 2026-05-05 15:40 | 49.82306 | -2.45147 | 31264 ft | 444 kts | 203° |
| 2026-05-05 15:40 | 49.79498 | -2.47110 | 31452 ft | 444 kts | 203° |
| 2026-05-05 15:40 | 49.76689 | -2.49075 | 31618 ft | 444 kts | 203° |
| 2026-05-05 15:40 | 49.73882 | -2.51034 | 31803 ft | 444 kts | 203° |
| 2026-05-05 15:41 | 49.71064 | -2.52993 | 31974 ft | 444 kts | 203° |
| 2026-05-05 15:41 | 49.68261 | -2.54940 | 32146 ft | 444 kts | 203° |
| 2026-05-05 15:41 | 49.65443 | -2.56893 | 32306 ft | 444 kts | 203° |
| 2026-05-05 15:41 | 49.62628 | -2.58837 | 32474 ft | 444 kts | 203° |
| 2026-05-05 15:42 | 49.59805 | -2.60784 | 32619 ft | 445 kts | 203° |
| 2026-05-05 15:42 | 49.56995 | -2.62719 | 32785 ft | 444 kts | 203° |
| 2026-05-05 15:42 | 49.54175 | -2.64664 | 32934 ft | 445 kts | 203° |
| 2026-05-05 15:43 | 49.48554 | -2.68529 | 32975 ft | 443 kts | 203° |
| 2026-05-05 15:43 | 49.42929 | -2.72389 | 32966 ft | 443 kts | 203° |
| 2026-05-05 15:44 | 49.37302 | -2.76246 | 32970 ft | 443 kts | 203° |
| 2026-05-05 15:44 | 49.31667 | -2.80093 | 32968 ft | 444 kts | 203° |
| 2026-05-05 15:45 | 49.26034 | -2.83926 | 32976 ft | 444 kts | 203° |
| 2026-05-05 15:45 | 49.20397 | -2.87758 | 32974 ft | 444 kts | 202° |
| 2026-05-05 15:46 | 49.14758 | -2.91578 | 32972 ft | 445 kts | 202° |
| 2026-05-05 15:46 | 49.09096 | -2.95408 | 32985 ft | 445 kts | 202° |
| 2026-05-05 15:47 | 49.03438 | -2.99221 | 32978 ft | 446 kts | 202° |
| 2026-05-05 15:47 | 48.97756 | -3.03041 | 32976 ft | 446 kts | 202° |
| 2026-05-05 15:48 | 48.92084 | -3.06840 | 32978 ft | 446 kts | 202° |
| 2026-05-05 15:48 | 48.86398 | -3.10646 | 32988 ft | 447 kts | 202° |
| 2026-05-05 15:49 | 48.80716 | -3.14446 | 32991 ft | 447 kts | 202° |
| 2026-05-05 15:49 | 48.75032 | -3.18228 | 32989 ft | 447 kts | 202° |
| 2026-05-05 15:50 | 48.69375 | -3.21993 | 32992 ft | 448 kts | 202° |
| 2026-05-05 15:50 | 48.63673 | -3.25771 | 32993 ft | 448 kts | 201° |
| 2026-05-05 15:51 | 48.57960 | -3.29541 | 32994 ft | 448 kts | 201° |
| 2026-05-05 15:51 | 48.52250 | -3.33303 | 32986 ft | 449 kts | 201° |
| 2026-05-05 15:52 | 48.46530 | -3.37061 | 32993 ft | 449 kts | 201° |
| 2026-05-05 15:52 | 48.40811 | -3.40818 | 32984 ft | 449 kts | 201° |
| 2026-05-05 15:53 | 48.35080 | -3.44571 | 32983 ft | 449 kts | 201° |
| 2026-05-05 15:53 | 48.29359 | -3.48297 | 32985 ft | 450 kts | 201° |
| 2026-05-05 15:54 | 48.23657 | -3.52012 | 32988 ft | 450 kts | 201° |
| 2026-05-05 15:54 | 48.17882 | -3.55772 | 32990 ft | 450 kts | 201° |
| 2026-05-05 15:55 | 48.12129 | -3.59504 | 32982 ft | 451 kts | 201° |
| 2026-05-05 15:55 | 48.06385 | -3.63210 | 32983 ft | 451 kts | 201° |
| 2026-05-05 15:56 | 48.00631 | -3.66912 | 32990 ft | 451 kts | 201° |
| 2026-05-05 15:56 | 47.94860 | -3.70618 | 32990 ft | 451 kts | 201° |
| 2026-05-05 15:57 | 47.89114 | -3.74312 | 32984 ft | 451 kts | 201° |
| 2026-05-05 15:57 | 47.83349 | -3.78015 | 32986 ft | 451 kts | 201° |
| 2026-05-05 15:58 | 47.77593 | -3.81698 | 32990 ft | 451 kts | 200° |
| 2026-05-05 15:58 | 47.71832 | -3.85361 | 32981 ft | 451 kts | 201° |
| 2026-05-05 15:59 | 47.66319 | -3.88858 | 32988 ft | 451 kts | 201° |
| 2026-05-05 15:59 | 47.60554 | -3.92519 | 32987 ft | 451 kts | 201° |
| 2026-05-05 16:00 | 47.54785 | -3.96170 | 32982 ft | 451 kts | 201° |
| 2026-05-05 16:00 | 47.49008 | -3.99820 | 32988 ft | 451 kts | 201° |
| 2026-05-05 16:01 | 47.43231 | -4.03452 | 32979 ft | 452 kts | 201° |
| 2026-05-05 16:01 | 47.37446 | -4.07089 | 32969 ft | 452 kts | 201° |
| 2026-05-05 16:02 | 47.31777 | -4.10641 | 32968 ft | 453 kts | 201° |
| 2026-05-05 16:02 | 47.25975 | -4.14263 | 32978 ft | 454 kts | 201° |
| 2026-05-05 16:03 | 47.20181 | -4.17879 | 32975 ft | 454 kts | 201° |
| 2026-05-05 16:03 | 47.14372 | -4.21498 | 32964 ft | 446 kts | 201° |
| 2026-05-05 16:04 | 47.09694 | -4.24466 | 32981 ft | 431 kts | 201° |
| 2026-05-05 16:04 | 47.04346 | -4.27874 | 32982 ft | 407 kts | 202° |
| 2026-05-05 16:05 | 46.99302 | -4.31290 | 32982 ft | 406 kts | 203° |
| 2026-05-05 16:05 | 46.94265 | -4.34684 | 32975 ft | 386 kts | 202° |
| 2026-05-05 16:05 | 46.91865 | -4.36288 | 32970 ft | 373 kts | 203° |
| 2026-05-05 16:06 | 46.89539 | -4.37860 | 32980 ft | 363 kts | 204° |
| 2026-05-05 16:06 | 46.87330 | -4.39400 | 32868 ft | 344 kts | 205° |
| 2026-05-05 16:06 | 46.85232 | -4.40929 | 32498 ft | 333 kts | 205° |
| 2026-05-05 16:06 | 46.83215 | -4.42410 | 31926 ft | 327 kts | 203° |
| 2026-05-05 16:07 | 46.81126 | -4.43861 | 30993 ft | 335 kts | 203° |
| 2026-05-05 16:07 | 46.79072 | -4.45482 | 30090 ft | 342 kts | 208° |
| 2026-05-05 16:07 | 46.76972 | -4.47241 | 29047 ft | 355 kts | 205° |
| 2026-05-05 16:07 | 46.74775 | -4.48963 | 28295 ft | 362 kts | 204° |
| 2026-05-05 16:08 | 46.72521 | -4.50565 | 27781 ft | 359 kts | 197° |
| 2026-05-05 16:08 | 46.70168 | -4.51493 | 27527 ft | 343 kts | 181° |
| 2026-05-05 16:08 | 46.67860 | -4.51372 | 27311 ft | 326 kts | 159° |
| 2026-05-05 16:08 | 46.66053 | -4.50021 | 27229 ft | 301 kts | 130° |
| 2026-05-05 16:09 | 46.64991 | -4.47723 | 27151 ft | 273 kts | 105° |
| 2026-05-05 16:09 | 46.64500 | -4.45152 | 26980 ft | 261 kts | 100° |
| 2026-05-05 16:09 | 46.64122 | -4.42554 | 26312 ft | 265 kts | 97° |
| 2026-05-05 16:09 | 46.63897 | -4.39858 | 25555 ft | 273 kts | 91° |
| 2026-05-05 16:10 | 46.63894 | -4.37054 | 24773 ft | 282 kts | 83° |
| 2026-05-05 16:10 | 46.64156 | -4.34188 | 23984 ft | 290 kts | 79° |
| 2026-05-05 16:10 | 46.64523 | -4.31358 | 23732 ft | 279 kts | 75° |
| 2026-05-05 16:10 | 46.64993 | -4.28700 | 23316 ft | 268 kts | 72° |
| 2026-05-05 16:11 | 46.65576 | -4.26132 | 22496 ft | 268 kts | 67° |
| 2026-05-05 16:11 | 46.67634 | -4.18874 | 20744 ft | 245 kts | 65° |
| 2026-05-05 16:12 | 46.68311 | -4.16617 | 20104 ft | 242 kts | 64° |
| 2026-05-05 16:12 | 46.69814 | -4.12260 | 18746 ft | 241 kts | 59° |
| 2026-05-05 16:13 | 46.72098 | -4.06287 | 17271 ft | 223 kts | 57° |
| 2026-05-05 16:13 | 46.72909 | -4.04346 | 16566 ft | 228 kts | 57° |
| 2026-05-05 16:13 | 46.73734 | -4.02370 | 15912 ft | 230 kts | 54° |
| 2026-05-05 16:14 | 46.75498 | -3.98637 | 15013 ft | 220 kts | 48° |
| 2026-05-05 16:14 | 46.77458 | -3.95066 | 13678 ft | 229 kts | 50° |
| 2026-05-05 16:15 | 46.79668 | -3.91745 | 12381 ft | 230 kts | 33° |
| 2026-05-05 16:15 | 46.82437 | -3.89470 | 11255 ft | 223 kts | 27° |
| 2026-05-05 16:16 | 46.85006 | -3.87069 | 10471 ft | 214 kts | 32° |
| 2026-05-05 16:16 | 46.86827 | -3.83788 | 9856 ft | 212 kts | 68° |
| 2026-05-05 16:17 | 46.87665 | -3.79723 | 9328 ft | 204 kts | 66° |
| 2026-05-05 16:17 | 46.88226 | -3.77863 | 8955 ft | 203 kts | 58° |
| 2026-05-05 16:18 | 46.89755 | -3.74552 | 8541 ft | 192 kts | 43° |
| 2026-05-05 16:18 | 46.90658 | -3.73166 | 8397 ft | 185 kts | 41° |
| 2026-05-05 16:18 | 46.92599 | -3.70836 | 7921 ft | 178 kts | 32° |
| 2026-05-05 16:19 | 46.93380 | -3.69539 | 7797 ft | 171 kts | 66° |
| 2026-05-05 16:19 | 46.93519 | -3.67834 | 7579 ft | 168 kts | 85° |
| 2026-05-05 16:19 | 46.93558 | -3.64803 | 7161 ft | 165 kts | 82° |
| 2026-05-05 16:20 | 46.94002 | -3.61533 | 6449 ft | 167 kts | 69° |
| 2026-05-05 16:20 | 46.94761 | -3.58483 | 6318 ft | 148 kts | 60° |
| 2026-05-05 16:21 | 46.95700 | -3.55922 | 5889 ft | 141 kts | 46° |
| 2026-05-05 16:22 | 46.97856 | -3.52962 | 4652 ft | 152 kts | 60° |
| 2026-05-05 16:22 | 46.98442 | -3.50071 | 4254 ft | 144 kts | 71° |
| 2026-05-05 16:23 | 46.98865 | -3.47255 | 3871 ft | 137 kts | 68° |
| 2026-05-05 16:23 | 46.99091 | -3.45887 | 3588 ft | 139 kts | 72° |
| 2026-05-05 16:23 | 46.99544 | -3.43130 | 3026 ft | 139 kts | 68° |
| 2026-05-05 16:24 | 46.99835 | -3.41763 | 2678 ft | 143 kts | 65° |
| 2026-05-05 16:24 | 47.00181 | -3.40365 | 2351 ft | 146 kts | 64° |
| 2026-05-05 16:24 | 47.00995 | -3.37546 | 1535 ft | 154 kts | 60° |